Time;durP1;ratioP1;P1;durP2;ratioP2;P2;SDS_P1;SDS_P2;PMS_P1;PMS_P2;Temp;Humidity;BMP_temperature;BMP_pressure;BME280_temperature;BME280_humidity;BME280_pressure;Samples;Min_cycle;Max_cycle;Signal;HPM_P1;HPM_P2
2024/03/15 00:03:12;;;;;;;;;;;;;;;7.35;100.00;95371.53;10502416;28;2061;-66
2024/03/15 00:08:16;;;;;;;;;;;;;;;7.30;100.00;95371.50;10507913;28;2268;-65
2024/03/15 00:13:19;;;;;;;;;;;;;;;7.26;100.00;95375.78;10514696;28;2527;-65
2024/03/15 00:18:22;;;;;;;;;;;;;;;7.25;100.00;95374.97;10511508;28;2093;-65
2024/03/15 00:23:25;;;;;;;;;;;;;;;7.29;100.00;95370.69;10507113;28;2044;-65
2024/03/15 00:28:27;;;;;;;;;;;;;;;7.29;100.00;95367.22;10506669;28;2104;-66
2024/03/15 00:33:30;;;;;;;;;;;;;;;7.13;100.00;95366.38;10510422;28;2280;-66
2024/03/15 00:38:33;;;;;;;;;;;;;;;7.12;100.00;95369.28;10511033;28;2119;-67
2024/03/15 00:43:36;;;;;;;;;;;;;;;7.06;100.00;95360.44;10508704;28;2067;-66
2024/03/15 00:48:40;;;;;;;;;;;;;;;7.03;100.00;95361.78;10513809;28;2115;-66
2024/03/15 00:53:43;;;;;;;;;;;;;;;7.03;100.00;95356.44;10509863;28;2528;-67
2024/03/15 00:58:45;;;;;;;;;;;;;;;7.01;100.00;95352.44;10506481;28;2039;-67
2024/03/15 01:03:48;;;;;;;;;;;;;;;6.99;100.00;95351.88;10511377;28;2096;-66
2024/03/15 01:08:51;;;;;;;;;;;;;;;7.04;100.00;95339.34;10504521;28;2071;-65
2024/03/15 01:13:58;;;;;;;;;;;;;;;7.04;100.00;95341.22;10503886;28;2130;-65
2024/03/15 01:19:00;;;;;;;;;;;;;;;7.02;100.00;95338.00;10503478;28;2118;-66
2024/03/15 01:24:03;;;;;;;;;;;;;;;6.97;100.00;95338.78;10507074;28;2104;-66
2024/03/15 01:29:06;;;;;;;;;;;;;;;6.96;100.00;95341.72;10508894;28;2119;-67
2024/03/15 01:34:09;;;;;;;;;;;;;;;6.98;100.00;95343.06;10507106;28;2195;-71
2024/03/15 01:39:11;;;;;;;;;;;;;;;6.99;100.00;95338.50;10510738;28;2488;-71
2024/03/15 01:44:14;;;;;;;;;;;;;;;7.04;100.00;95342.00;10507802;28;2115;-74
2024/03/15 01:49:17;;;;;;;;;;;;;;;7.19;100.00;95332.44;10509509;28;2127;-70
2024/03/15 01:54:20;;;;;;;;;;;;;;;7.23;100.00;95334.31;10513962;28;2155;-70
2024/03/15 01:59:24;;;;;;;;;;;;;;;7.31;100.00;95339.16;10509018;28;2100;-65
2024/03/15 02:04:27;;;;;;;;;;;;;;;7.47;100.00;95334.66;10506491;28;2080;-64
2024/03/15 02:09:30;;;;;;;;;;;;;;;7.61;100.00;95328.78;10509120;28;2048;-66
2024/03/15 02:14:32;;;;;;;;;;;;;;;7.90;100.00;95321.88;10509383;28;2142;-67
2024/03/15 02:19:35;;;;;;;;;;;;;;;8.08;100.00;95320.53;10506571;28;2430;-64
2024/03/15 02:24:37;;;;;;;;;;;;;;;8.09;100.00;95324.81;10507171;28;2123;-67
2024/03/15 02:29:41;;;;;;;;;;;;;;;7.99;100.00;95330.97;10505321;28;2269;-66
2024/03/15 02:34:43;;;;;;;;;;;;;;;7.85;100.00;95329.91;10506249;28;2079;-67
2024/03/15 02:39:46;;;;;;;;;;;;;;;7.81;100.00;95324.25;10503752;28;2176;-65
2024/03/15 02:44:49;;;;;;;;;;;;;;;7.70;100.00;95332.53;10508861;28;2135;-66
2024/03/15 02:49:52;;;;;;;;;;;;;;;7.65;100.00;95335.22;10509639;28;2139;-66
2024/03/15 02:54:56;;;;;;;;;;;;;;;7.61;100.00;95344.84;10506524;28;2076;-66
2024/03/15 02:59:59;;;;;;;;;;;;;;;7.64;100.00;95338.97;10504841;28;2103;-66
2024/03/15 03:05:02;;;;;;;;;;;;;;;7.69;100.00;95341.63;10505938;28;2535;-67
2024/03/15 03:10:04;;;;;;;;;;;;;;;7.67;100.00;95346.47;10500690;28;2116;-66
2024/03/15 03:15:07;;;;;;;;;;;;;;;7.70;100.00;95345.91;10505386;28;2263;-66
2024/03/15 03:20:18;;;;;;;;;;;;;;;7.60;100.00;95354.75;10503965;28;1965;-64
2024/03/15 03:25:21;;;;;;;;;;;;;;;7.55;100.00;95347.50;10505272;28;2127;-65
2024/03/15 03:30:24;;;;;;;;;;;;;;;7.54;100.00;95345.91;10505399;28;2219;-65
2024/03/15 03:35:26;;;;;;;;;;;;;;;7.61;100.00;95340.28;10503973;28;2103;-67
2024/03/15 03:40:29;;;;;;;;;;;;;;;7.63;100.00;95358.75;10508423;28;2153;-67
2024/03/15 03:45:32;;;;;;;;;;;;;;;7.63;100.00;95348.06;10510214;28;2957;-66
2024/03/15 03:50:34;;;;;;;;;;;;;;;7.65;100.00;95345.94;10514716;28;2017;-67
2024/03/15 03:55:40;;;;;;;;;;;;;;;7.71;100.00;95347.56;10514224;28;2005;-66
2024/03/15 04:00:42;;;;;;;;;;;;;;;7.75;100.00;95359.31;10511561;28;2090;-66
2024/03/15 04:05:45;;;;;;;;;;;;;;;7.73;100.00;95358.78;10510867;28;2139;-66
2024/03/15 04:10:47;;;;;;;;;;;;;;;7.73;100.00;95350.75;10507494;28;2080;-67
2024/03/15 04:15:54;;;;;;;;;;;;;;;7.76;100.00;95353.72;10514746;28;2115;-67
2024/03/15 04:20:57;;;;;;;;;;;;;;;7.81;100.00;95356.38;10511948;28;2111;-71
2024/03/15 04:25:59;;;;;;;;;;;;;;;7.80;100.00;95348.63;10510580;28;2929;-67
2024/03/15 04:31:05;;;;;;;;;;;;;;;7.77;100.00;95351.84;10511850;28;2053;-70
2024/03/15 04:36:08;;;;;;;;;;;;;;;7.78;100.00;95356.91;10511132;28;2099;-68
2024/03/15 04:41:10;;;;;;;;;;;;;;;7.76;100.00;95356.38;10510448;28;2204;-66
2024/03/15 04:46:13;;;;;;;;;;;;;;;7.77;100.00;95357.19;10510869;28;2107;-65
2024/03/15 04:51:15;;;;;;;;;;;;;;;7.89;100.00;95373.78;10510283;28;2004;-65
2024/03/15 04:56:18;;;;;;;;;;;;;;;7.78;100.00;95366.81;10513413;28;2257;-66
2024/03/15 05:01:22;;;;;;;;;;;;;;;7.68;100.00;95367.59;10512575;28;2132;-65
2024/03/15 05:06:25;;;;;;;;;;;;;;;7.67;100.00;95370.53;10508123;28;3054;-65
2024/03/15 05:11:33;;;;;;;;;;;;;;;7.61;100.00;95376.94;10504017;28;2049;-65
2024/03/15 05:16:36;;;;;;;;;;;;;;;7.70;100.00;95364.66;10504205;28;2110;-66
2024/03/15 05:21:38;;;;;;;;;;;;;;;7.66;100.00;95385.00;10509628;28;2113;-69
2024/03/15 05:26:41;;;;;;;;;;;;;;;7.66;100.00;95374.28;10505974;28;2036;-65
2024/03/15 05:31:46;;;;;;;;;;;;;;;7.81;100.00;95371.63;10510097;28;2238;-66
2024/03/15 05:36:49;;;;;;;;;;;;;;;7.79;100.00;95384.47;10508059;28;2043;-68
2024/03/15 05:41:52;;;;;;;;;;;;;;;7.92;100.00;95386.63;10505652;28;2121;-67
2024/03/15 05:46:58;;;;;;;;;;;;;;;7.99;100.00;95384.50;10510232;28;2179;-67
2024/03/15 05:52:01;;;;;;;;;;;;;;;8.07;100.00;95385.84;10506689;28;2074;-67
2024/03/15 05:57:04;;;;;;;;;;;;;;;8.19;100.00;95393.59;10511047;28;2056;-67
2024/03/15 06:02:06;;;;;;;;;;;;;;;8.36;100.00;95394.97;10511029;28;2096;-66
2024/03/15 06:07:09;;;;;;;;;;;;;;;8.57;100.00;95390.41;10501842;28;2013;-69
2024/03/15 06:12:11;;;;;;;;;;;;;;;8.77;100.00;95405.66;10507039;28;2238;-66
2024/03/15 06:17:14;;;;;;;;;;;;;;;9.04;100.00;95399.97;10504544;28;2080;-66
2024/03/15 06:22:17;;;;;;;;;;;;;;;9.26;100.00;95405.00;10506686;28;2174;-66
2024/03/15 06:27:20;;;;;;;;;;;;;;;9.56;100.00;95395.22;10508265;28;2136;-69
2024/03/15 06:32:29;;;;;;;;;;;;;;;9.79;100.00;95399.09;10505062;28;2131;-67
2024/03/15 06:37:32;;;;;;;;;;;;;;;10.03;100.00;95402.72;10511052;28;2755;-67
2024/03/15 06:42:59;;;;;;;;;;;;;;;10.17;100.00;95398.31;10515604;28;2119;-70
2024/03/15 06:48:03;;;;;;;;;;;;;;;10.48;100.00;95406.97;10510715;28;2119;-68
2024/03/15 06:53:06;;;;;;;;;;;;;;;10.79;100.00;95402.13;10511382;28;2359;-69
2024/03/15 06:58:08;;;;;;;;;;;;;;;11.00;100.00;95405.41;10510052;28;2063;-67
2024/03/15 07:03:23;;;;;;;;;;;;;;;11.20;100.00;95399.03;10513811;28;2104;-67
2024/03/15 07:08:27;;;;;;;;;;;;;;;11.50;100.00;95405.94;10515310;28;1943;-67
2024/03/15 07:13:30;;;;;;;;;;;;;;;11.77;100.00;95407.19;10511894;28;1965;-69
2024/03/15 07:18:32;;;;;;;;;;;;;;;12.03;100.00;95407.72;10508705;28;2085;-66
2024/03/15 07:23:35;;;;;;;;;;;;;;;12.34;100.00;95402.63;10509906;28;2059;-70
2024/03/15 07:28:39;;;;;;;;;;;;;;;12.51;100.00;95404.81;10507988;28;2126;-67
2024/03/15 07:33:42;;;;;;;;;;;;;;;12.69;100.00;95398.56;10508686;28;2155;-66
2024/03/15 07:38:45;;;;;;;;;;;;;;;12.87;100.00;95405.81;10514200;28;2235;-69
2024/03/15 07:43:50;;;;;;;;;;;;;;;12.86;100.00;95401.53;10510443;28;2057;-68
2024/03/15 07:48:53;;;;;;;;;;;;;;;13.18;100.00;95414.16;10507488;28;2112;-70
2024/03/15 07:53:55;;;;;;;;;;;;;;;13.27;100.00;95422.38;10499891;28;2237;-71
2024/03/15 07:58:58;;;;;;;;;;;;;;;13.69;100.00;95420.50;10501051;28;2077;-73
2024/03/15 08:04:01;;;;;;;;;;;;;;;13.97;100.00;95416.63;10503366;28;2052;-74
2024/03/15 08:09:04;;;;;;;;;;;;;;;14.15;100.00;95414.09;10503952;28;2060;-70
2024/03/15 08:14:08;;;;;;;;;;;;;;;14.38;100.00;95423.03;10502786;28;2588;-71
2024/03/15 08:19:10;;;;;;;;;;;;;;;14.60;100.00;95417.69;10504669;28;2228;-73
2024/03/15 08:24:13;;;;;;;;;;;;;;;15.08;100.00;95423.25;10504112;28;2154;-68
2024/03/15 08:29:17;;;;;;;;;;;;;;;15.42;100.00;95427.22;10499295;28;2209;-66
2024/03/15 08:34:21;;;;;;;;;;;;;;;15.46;100.00;95422.78;10499331;28;2203;-67
2024/03/15 08:39:29;;;;;;;;;;;;;;;15.55;100.00;95429.03;10507448;28;2057;-68
2024/03/15 08:44:32;;;;;;;;;;;;;;;15.75;100.00;95432.31;10505293;28;2058;-68
2024/03/15 08:49:36;;;;;;;;;;;;;;;15.71;100.00;95434.81;10509583;28;1998;-70
2024/03/15 08:54:39;;;;;;;;;;;;;;;15.54;100.00;95437.47;10504197;28;2057;-70
2024/03/15 08:59:42;;;;;;;;;;;;;;;15.62;100.00;95440.22;10503167;28;2110;-67
2024/03/15 09:04:46;;;;;;;;;;;;;;;15.97;100.00;95440.34;10506241;28;2171;-67
2024/03/15 09:09:48;;;;;;;;;;;;;;;16.56;100.00;95443.44;10509976;28;2068;-66
2024/03/15 09:14:52;;;;;;;;;;;;;;;16.58;100.00;95441.19;10503651;27;2116;-68
2024/03/15 09:19:57;;;;;;;;;;;;;;;16.83;100.00;95449.69;10503790;28;2238;-67
2024/03/15 09:25:00;;;;;;;;;;;;;;;16.32;100.00;95443.91;10502075;28;2013;-66
2024/03/15 09:30:16;;;;;;;;;;;;;;;16.13;100.00;95446.91;10503600;28;2065;-66
2024/03/15 09:35:19;;;;;;;;;;;;;;;16.11;100.00;95437.50;10503958;28;2020;-66
2024/03/15 09:40:23;;;;;;;;;;;;;;;15.59;100.00;95454.38;10504465;28;2259;-70
2024/03/15 09:45:26;;;;;;;;;;;;;;;14.91;100.00;95450.19;10506323;28;2104;-66
2024/03/15 09:50:31;;;;;;;;;;;;;;;14.27;100.00;95457.63;10505585;28;2067;-66
2024/03/15 09:55:33;;;;;;;;;;;;;;;13.85;100.00;95459.59;10505837;28;2119;-67
2024/03/15 10:00:37;;;;;;;;;;;;;;;12.97;100.00;95459.56;10506463;28;2158;-68
2024/03/15 10:05:40;;;;;;;;;;;;;;;12.40;100.00;95499.31;10505032;28;2001;-66
2024/03/15 10:10:44;;;;;;;;;;;;;;;12.54;100.00;95504.00;10500557;28;2020;-68
2024/03/15 10:15:47;;;;;;;;;;;;;;;12.88;100.00;95499.13;10503121;28;2242;-67
2024/03/15 10:20:50;;;;;;;;;;;;;;;13.59;100.00;95497.09;10500676;28;2134;-67
2024/03/15 10:25:53;;;;;;;;;;;;;;;13.79;100.00;95482.41;10500930;28;2198;-68
2024/03/15 10:30:55;;;;;;;;;;;;;;;13.88;100.00;95477.13;10505094;28;1971;-73
2024/03/15 10:35:58;;;;;;;;;;;;;;;14.48;100.00;95477.72;10510938;28;2257;-67
2024/03/15 10:41:01;;;;;;;;;;;;;;;14.60;100.00;95477.97;10503725;28;2088;-67
2024/03/15 10:46:04;;;;;;;;;;;;;;;14.70;100.00;95478.88;10505675;28;1984;-68
2024/03/15 10:51:07;;;;;;;;;;;;;;;14.69;100.00;95479.94;10506621;28;2074;-67
2024/03/15 10:56:11;;;;;;;;;;;;;;;14.77;100.00;95471.91;10502014;28;2138;-71
2024/03/15 11:01:14;;;;;;;;;;;;;;;15.16;100.00;95466.91;10502686;28;2251;-73
2024/03/15 11:06:17;;;;;;;;;;;;;;;15.47;100.00;95465.00;10502715;28;3003;-70
2024/03/15 11:11:19;;;;;;;;;;;;;;;15.44;100.00;95454.78;10500144;28;2032;-67
2024/03/15 11:16:24;;;;;;;;;;;;;;;15.09;100.00;95461.94;10504792;28;2184;-72
2024/03/15 11:21:26;;;;;;;;;;;;;;;14.86;100.00;95458.44;10504051;28;2060;-67
2024/03/15 11:26:29;;;;;;;;;;;;;;;14.88;100.00;95458.91;10496894;28;2071;-65
2024/03/15 11:31:32;;;;;;;;;;;;;;;15.07;100.00;95453.31;10501187;28;2271;-67
2024/03/15 11:36:35;;;;;;;;;;;;;;;15.13;100.00;95457.50;10501742;28;2135;-65
2024/03/15 11:41:37;;;;;;;;;;;;;;;15.10;100.00;95441.88;10504119;28;2096;-67
2024/03/15 11:46:40;;;;;;;;;;;;;;;15.26;100.00;95445.78;10503426;28;2083;-68
2024/03/15 11:51:43;;;;;;;;;;;;;;;15.46;100.00;95444.47;10500913;28;2115;-66
2024/03/15 11:56:46;;;;;;;;;;;;;;;15.41;100.00;95441.88;10505086;28;2303;-66
2024/03/15 12:01:48;;;;;;;;;;;;;;;15.30;100.00;95445.97;10500047;28;2246;-65
2024/03/15 12:06:51;;;;;;;;;;;;;;;15.26;100.00;95439.56;10511138;28;2523;-67
2024/03/15 12:11:54;;;;;;;;;;;;;;;15.36;100.00;95439.31;10510434;28;2136;-66
2024/03/15 12:16:57;;;;;;;;;;;;;;;15.55;100.00;95423.59;10510231;28;2129;-67
2024/03/15 12:21:59;;;;;;;;;;;;;;;15.52;100.00;95421.50;10526683;28;1931;-66
2024/03/15 12:27:02;;;;;;;;;;;;;;;15.83;100.00;95412.56;10516843;28;1877;-67
2024/03/15 12:32:05;;;;;;;;;;;;;;;16.20;100.00;95414.69;10516420;28;1983;-67
2024/03/15 12:37:08;;;;;;;;;;;;;;;16.82;100.00;95399.22;10521345;28;1902;-67
2024/03/15 12:42:15;;;;;;;;;;;;;;;17.02;100.00;95393.09;10549585;27;1862;-69
2024/03/15 12:47:18;;;;;;;;;;;;;;;16.96;100.00;95387.03;10524623;28;2582;-68
2024/03/15 12:52:21;;;;;;;;;;;;;;;17.57;100.00;95375.97;10525321;28;1895;-67
2024/03/15 12:57:26;;;;;;;;;;;;;;;17.77;100.00;95377.97;10519271;28;1842;-70
2024/03/15 13:02:29;;;;;;;;;;;;;;;17.77;100.00;95371.72;10520077;28;1980;-67
2024/03/15 13:07:32;;;;;;;;;;;;;;;17.21;100.00;95385.38;10526229;28;1641;-67
2024/03/15 13:12:34;;;;;;;;;;;;;;;17.00;100.00;95381.78;10513174;28;1992;-69
2024/03/15 13:17:37;;;;;;;;;;;;;;;17.16;100.00;95384.75;10514452;28;1894;-67
2024/03/15 13:22:40;;;;;;;;;;;;;;;17.21;100.00;95385.38;10526769;28;1487;-67
2024/03/15 13:27:42;;;;;;;;;;;;;;;17.26;100.00;95368.91;10521625;28;2379;-66
2024/03/15 13:32:44;;;;;;;;;;;;;;;17.36;100.00;95369.66;10511459;28;2336;-67
2024/03/15 13:37:47;;;;;;;;;;;;;;;17.16;100.00;95369.25;10523077;28;1925;-67
2024/03/15 13:42:50;;;;;;;;;;;;;;;17.05;100.00;95368.03;10520071;28;2061;-67
2024/03/15 13:47:53;;;;;;;;;;;;;;;16.93;100.00;95376.06;10515946;28;1866;-67
2024/03/15 13:52:57;;;;;;;;;;;;;;;16.84;100.00;95367.13;10516584;28;2159;-67
2024/03/15 13:58:00;;;;;;;;;;;;;;;16.67;100.00;95363.31;10516486;28;1529;-69
2024/03/15 14:03:03;;;;;;;;;;;;;;;16.63;100.00;95356.91;10515374;28;1873;-68
2024/03/15 14:08:06;;;;;;;;;;;;;;;16.71;100.00;95352.63;10521603;28;1966;-67
2024/03/15 14:13:08;;;;;;;;;;;;;;;16.47;100.00;95345.75;10514262;28;1975;-68
2024/03/15 14:18:11;;;;;;;;;;;;;;;16.32;100.00;95357.09;10516870;28;2222;-75
2024/03/15 14:23:15;;;;;;;;;;;;;;;16.14;100.00;95356.31;10510064;28;2572;-76
2024/03/15 14:28:18;;;;;;;;;;;;;;;16.39;100.00;95343.84;10516755;28;1874;-73
2024/03/15 14:33:20;;;;;;;;;;;;;;;16.98;100.00;95343.28;10519710;28;1992;-75
2024/03/15 14:38:25;;;;;;;;;;;;;;;16.87;100.00;95344.78;10514825;28;1945;-66
2024/03/15 14:43:27;;;;;;;;;;;;;;;16.66;100.00;95350.03;10518691;28;1903;-67
2024/03/15 14:48:30;;;;;;;;;;;;;;;16.69;100.00;95343.97;10518324;28;1620;-66
2024/03/15 14:53:33;;;;;;;;;;;;;;;16.72;100.00;95333.28;10516807;28;2112;-68
2024/03/15 14:58:35;;;;;;;;;;;;;;;16.67;100.00;95338.88;10517363;28;2052;-68
2024/03/15 15:03:38;;;;;;;;;;;;;;;16.87;100.00;95339.34;10509524;28;1874;-68
2024/03/15 15:08:41;;;;;;;;;;;;;;;16.58;100.00;95331.84;10514076;28;1812;-68
2024/03/15 15:13:46;;;;;;;;;;;;;;;16.48;100.00;95331.09;10515785;28;1972;-67
2024/03/15 15:18:50;;;;;;;;;;;;;;;16.58;100.00;95338.09;10518312;28;2795;-69
2024/03/15 15:23:52;;;;;;;;;;;;;;;16.45;100.00;95344.50;10516485;28;1466;-69
2024/03/15 15:28:55;;;;;;;;;;;;;;;16.45;100.00;95341.78;10511423;28;1838;-67
2024/03/15 15:33:59;;;;;;;;;;;;;;;16.26;100.00;95341.31;10519320;28;1989;-66
2024/03/15 15:39:04;;;;;;;;;;;;;;;15.93;100.00;95339.06;10528740;28;1850;-66
2024/03/15 15:44:07;;;;;;;;;;;;;;;15.67;100.00;95341.75;10523991;28;2055;-69
2024/03/15 15:49:09;;;;;;;;;;;;;;;15.54;100.00;95351.56;10522748;28;2005;-68
2024/03/15 15:54:12;;;;;;;;;;;;;;;15.68;100.00;95362.31;10527194;28;1910;-67
2024/03/15 15:59:14;;;;;;;;;;;;;;;15.51;100.00;95354.09;10530513;28;2363;-70
2024/03/15 16:04:18;;;;;;;;;;;;;;;15.49;100.00;95356.34;10510332;28;1889;-67
2024/03/15 16:09:20;;;;;;;;;;;;;;;15.45;100.00;95356.16;10525200;28;1905;-68
2024/03/15 16:14:23;;;;;;;;;;;;;;;15.39;100.00;95379.06;10515093;28;1914;-67
2024/03/15 16:19:25;;;;;;;;;;;;;;;15.11;100.00;95363.06;10520025;28;2066;-67
2024/03/15 16:24:28;;;;;;;;;;;;;;;14.91;100.00;95381.75;10522044;28;1850;-67
2024/03/15 16:29:30;;;;;;;;;;;;;;;14.59;100.00;95418.78;10524977;28;1911;-67
2024/03/15 16:34:35;;;;;;;;;;;;;;;13.66;100.00;95438.09;10522810;28;2026;-68
2024/03/15 16:39:37;;;;;;;;;;;;;;;12.16;100.00;95444.69;10527976;28;2880;-68
2024/03/15 16:44:43;;;;;;;;;;;;;;;11.08;100.00;95441.66;10520057;28;2041;-67
2024/03/15 16:49:45;;;;;;;;;;;;;;;10.42;100.00;95451.09;10519776;28;1640;-67
2024/03/15 16:54:47;;;;;;;;;;;;;;;10.14;100.00;95465.22;10507938;28;2361;-69
2024/03/15 16:59:55;;;;;;;;;;;;;;;10.15;100.00;95466.81;10510304;28;2241;-68
2024/03/15 17:04:59;;;;;;;;;;;;;;;10.22;100.00;95472.69;10508246;28;2147;-68
2024/03/15 17:10:05;;;;;;;;;;;;;;;10.23;100.00;95474.31;10512219;28;2200;-68
2024/03/15 17:15:10;;;;;;;;;;;;;;;10.22;100.00;95480.75;10505878;28;2045;-69
2024/03/15 17:20:16;;;;;;;;;;;;;;;10.23;100.00;95485.88;10512873;28;2126;-68
2024/03/15 17:25:18;;;;;;;;;;;;;;;10.28;100.00;95491.22;10511746;28;2108;-68
2024/03/15 17:30:21;;;;;;;;;;;;;;;10.27;100.00;95486.13;10511204;28;2126;-67
2024/03/15 17:35:23;;;;;;;;;;;;;;;10.35;100.00;95492.78;10511347;28;2187;-67
2024/03/15 17:40:26;;;;;;;;;;;;;;;10.44;100.00;95485.75;10510780;28;2303;-67
2024/03/15 17:45:30;;;;;;;;;;;;;;;10.49;100.00;95489.19;10508989;28;2678;-66
2024/03/15 17:50:33;;;;;;;;;;;;;;;10.41;100.00;95491.69;10509282;28;2042;-67
2024/03/15 17:55:35;;;;;;;;;;;;;;;10.43;100.00;95490.34;10508102;28;2056;-65
2024/03/15 18:00:38;;;;;;;;;;;;;;;10.31;100.00;95497.94;10508930;28;2189;-67
2024/03/15 18:05:40;;;;;;;;;;;;;;;10.31;100.00;95502.47;10508212;28;2083;-68
2024/03/15 18:10:45;;;;;;;;;;;;;;;10.20;100.00;95496.34;10504531;28;2001;-68
2024/03/15 18:15:50;;;;;;;;;;;;;;;10.09;100.00;95498.28;10510196;28;2044;-68
2024/03/15 18:20:52;;;;;;;;;;;;;;;10.00;100.00;95508.00;10504312;28;2221;-67
2024/03/15 18:25:55;;;;;;;;;;;;;;;9.83;100.00;95515.59;10507106;28;2120;-66
2024/03/15 18:30:59;;;;;;;;;;;;;;;9.72;100.00;95521.00;10510412;28;2800;-66
2024/03/15 18:36:03;;;;;;;;;;;;;;;9.71;100.00;95524.75;10506267;28;2111;-67
2024/03/15 18:41:06;;;;;;;;;;;;;;;9.81;100.00;95520.44;10505686;28;2115;-67
2024/03/15 18:46:09;;;;;;;;;;;;;;;9.71;100.00;95522.06;10507408;28;2060;-69
2024/03/15 18:51:13;;;;;;;;;;;;;;;9.59;100.00;95529.63;10512703;28;2059;-69
2024/03/15 18:56:15;;;;;;;;;;;;;;;9.61;100.00;95538.22;10506121;28;2123;-67
2024/03/15 19:01:20;;;;;;;;;;;;;;;9.80;100.00;95540.28;10506255;28;2004;-66
2024/03/15 19:06:23;;;;;;;;;;;;;;;9.92;100.00;95535.41;10505398;28;2123;-66
2024/03/15 19:11:26;;;;;;;;;;;;;;;9.81;100.00;95544.59;10503051;28;2029;-68
2024/03/15 19:16:29;;;;;;;;;;;;;;;9.68;100.00;95549.47;10505993;28;2108;-68
2024/03/15 19:21:33;;;;;;;;;;;;;;;9.72;100.00;95549.72;10503900;28;2119;-67
2024/03/15 19:26:45;;;;;;;;;;;;;;;9.93;100.00;95545.09;10504844;28;2714;-66
2024/03/15 19:31:50;;;;;;;;;;;;;;;10.04;100.00;95535.91;10504216;28;2005;-67
2024/03/15 19:36:52;;;;;;;;;;;;;;;9.97;100.00;95530.81;10504466;28;2116;-67
2024/03/15 19:41:55;;;;;;;;;;;;;;;9.98;100.00;95523.56;10504320;28;2067;-67
2024/03/15 19:46:57;;;;;;;;;;;;;;;9.96;100.00;95523.06;10505043;28;2063;-67
2024/03/15 19:52:04;;;;;;;;;;;;;;;9.88;100.00;95527.13;10505419;28;2218;-67
2024/03/15 19:57:07;;;;;;;;;;;;;;;9.80;100.00;95529.56;10506137;28;2002;-69
2024/03/15 20:02:10;;;;;;;;;;;;;;;9.86;100.00;95523.91;10503283;28;2543;-67
2024/03/15 20:07:13;;;;;;;;;;;;;;;9.84;100.00;95531.41;10508445;28;2222;-67
2024/03/15 20:12:15;;;;;;;;;;;;;;;9.89;100.00;95533.28;10503521;28;2124;-69
2024/03/15 20:17:18;;;;;;;;;;;;;;;9.98;100.00;95532.44;10500201;28;2088;-68
2024/03/15 20:22:21;;;;;;;;;;;;;;;10.07;100.00;95530.00;10501772;28;2167;-68
2024/03/15 20:27:24;;;;;;;;;;;;;;;10.09;100.00;95525.13;10511606;28;2107;-76
2024/03/15 20:32:26;;;;;;;;;;;;;;;10.11;100.00;95528.34;10511708;28;2076;-76
2024/03/15 20:37:29;;;;;;;;;;;;;;;10.13;100.00;95538.81;10509236;28;2118;-73
2024/03/15 20:42:32;;;;;;;;;;;;;;;10.22;100.00;95539.84;10510526;28;2164;-74
2024/03/15 20:47:35;;;;;;;;;;;;;;;10.22;100.00;95539.84;10515124;28;2307;-68
2024/03/15 20:52:37;;;;;;;;;;;;;;;10.22;100.00;95540.66;10526522;28;2076;-67
2024/03/15 20:57:40;;;;;;;;;;;;;;;10.23;100.00;95544.16;10511729;28;2131;-69
2024/03/15 21:02:44;;;;;;;;;;;;;;;10.17;100.00;95546.03;10516166;28;2120;-74
2024/03/15 21:07:48;;;;;;;;;;;;;;;10.08;100.00;95553.06;10511209;28;2123;-67
2024/03/15 21:12:50;;;;;;;;;;;;;;;10.01;100.00;95552.56;10503217;28;2008;-67
2024/03/15 21:17:53;;;;;;;;;;;;;;;9.95;100.00;95557.16;10511347;28;2762;-67
2024/03/15 21:22:56;;;;;;;;;;;;;;;9.84;100.00;95546.72;10514460;28;2203;-67
2024/03/15 21:27:58;;;;;;;;;;;;;;;9.88;100.00;95553.97;10507475;28;2028;-66
2024/03/15 21:33:01;;;;;;;;;;;;;;;9.85;100.00;95559.06;10510060;28;2119;-66
2024/03/15 21:38:06;;;;;;;;;;;;;;;9.75;100.00;95549.97;10515152;28;2120;-66
2024/03/15 21:43:10;;;;;;;;;;;;;;;9.73;100.00;95546.78;10510333;28;2348;-66
2024/03/15 21:48:13;;;;;;;;;;;;;;;9.80;100.00;95541.13;10507932;28;2393;-67
2024/03/15 21:53:19;;;;;;;;;;;;;;;9.60;100.00;95546.53;10510921;28;2052;-66
2024/03/15 21:58:22;;;;;;;;;;;;;;;9.52;100.00;95549.78;10507964;28;2391;-66
2024/03/15 22:03:25;;;;;;;;;;;;;;;9.42;100.00;95551.41;10511871;28;1885;-66
2024/03/15 22:08:28;;;;;;;;;;;;;;;9.49;100.00;95545.78;10511887;28;2060;-68
2024/03/15 22:13:31;;;;;;;;;;;;;;;9.64;100.00;95550.28;10510989;28;2194;-70
2024/03/15 22:18:33;;;;;;;;;;;;;;;9.56;100.00;95557.00;10511729;28;2047;-68
2024/03/15 22:23:36;;;;;;;;;;;;;;;9.69;100.00;95548.38;10505527;28;2152;-68
2024/03/15 22:28:39;;;;;;;;;;;;;;;9.81;100.00;95542.72;10509004;28;2163;-68
2024/03/15 22:33:42;;;;;;;;;;;;;;;9.79;100.00;95549.41;10508870;28;2116;-73
2024/03/15 22:38:45;;;;;;;;;;;;;;;9.86;100.00;95555.31;10507610;28;2144;-70
2024/03/15 22:43:48;;;;;;;;;;;;;;;9.99;100.00;95555.53;10508528;28;2131;-68
2024/03/15 22:48:51;;;;;;;;;;;;;;;10.06;100.00;95571.34;10505712;28;2630;-66
2024/03/15 22:53:55;;;;;;;;;;;;;;;10.03;100.00;95582.63;10506743;28;2108;-66
2024/03/15 22:59:00;;;;;;;;;;;;;;;9.81;100.00;95592.94;10507348;28;2261;-67
2024/03/15 23:04:03;;;;;;;;;;;;;;;9.65;100.00;95592.13;10510027;28;2337;-66
2024/03/15 23:09:09;;;;;;;;;;;;;;;9.54;100.00;95594.03;10505668;28;2465;-66
2024/03/15 23:14:12;;;;;;;;;;;;;;;9.53;100.00;95588.94;10505550;28;2060;-65
2024/03/15 23:19:15;;;;;;;;;;;;;;;9.59;100.00;95593.22;10509612;28;2058;-66
2024/03/15 23:24:18;;;;;;;;;;;;;;;9.62;100.00;95584.66;10507268;28;2124;-64
2024/03/15 23:29:21;;;;;;;;;;;;;;;9.61;100.00;95581.16;10503135;28;2049;-67
2024/03/15 23:34:26;;;;;;;;;;;;;;;9.67;100.00;95572.03;10508604;28;2725;-65
2024/03/15 23:39:30;;;;;;;;;;;;;;;9.70;100.00;95568.78;10505645;28;2140;-68
2024/03/15 23:44:38;;;;;;;;;;;;;;;9.69;100.00;95559.13;10499826;28;2247;-65
2024/03/15 23:49:42;;;;;;;;;;;;;;;9.74;100.00;95558.31;10503095;28;2054;-67
2024/03/15 23:54:45;;;;;;;;;;;;;;;9.67;100.00;95553.25;10503217;28;2265;-67
2024/03/15 23:59:48;;;;;;;;;;;;;;;9.61;100.00;95554.31;10511414;28;2069;-70
